sensor_id;sensor_type;location;lat;lon;timestamp;pressure;altitude;pressure_sealevel;temperature;humidity
71149;BME280;59072;42.144;25.200;2023-09-19T00:01:19;100479.63;;;17.66;74.41
71149;BME280;59072;42.144;25.200;2023-09-19T00:03:45;100486.34;;;17.63;73.83
71149;BME280;59072;42.144;25.200;2023-09-19T00:06:11;100497.78;;;17.76;74.56
71149;BME280;59072;42.144;25.200;2023-09-19T00:08:41;100482.22;;;17.83;75.43
71149;BME280;59072;42.144;25.200;2023-09-19T00:11:09;100477.84;;;17.77;73.63
71149;BME280;59072;42.144;25.200;2023-09-19T00:13:36;100485.25;;;16.32;72.83
71149;BME280;59072;42.144;25.200;2023-09-19T00:16:08;100502.66;;;16.07;77.02
71149;BME280;59072;42.144;25.200;2023-09-19T00:18:35;100479.75;;;16.61;76.49
71149;BME280;59072;42.144;25.200;2023-09-19T00:21:01;100497.97;;;16.93;76.45
71149;BME280;59072;42.144;25.200;2023-09-19T00:23:27;100487.19;;;16.54;76.03
71149;BME280;59072;42.144;25.200;2023-09-19T00:25:53;100487.16;;;16.15;75.12
71149;BME280;59072;42.144;25.200;2023-09-19T00:28:22;100488.13;;;15.75;79.72
71149;BME280;59072;42.144;25.200;2023-09-19T00:30:48;100485.63;;;16.58;76.33
71149;BME280;59072;42.144;25.200;2023-09-19T00:33:16;100492.09;;;17.45;74.56
71149;BME280;59072;42.144;25.200;2023-09-19T00:35:48;100483.56;;;17.53;72.53
71149;BME280;59072;42.144;25.200;2023-09-19T00:38:14;100471.88;;;17.75;72.03
71149;BME280;59072;42.144;25.200;2023-09-19T00:40:45;100471.06;;;17.74;71.70
71149;BME280;59072;42.144;25.200;2023-09-19T00:43:11;100480.19;;;17.68;73.83
71149;BME280;59072;42.144;25.200;2023-09-19T00:45:37;100465.50;;;17.54;74.19
71149;BME280;59072;42.144;25.200;2023-09-19T00:48:08;100483.09;;;17.61;74.17
71149;BME280;59072;42.144;25.200;2023-09-19T00:50:35;100448.44;;;17.48;75.16
71149;BME280;59072;42.144;25.200;2023-09-19T00:53:01;100460.59;;;17.23;76.01
71149;BME280;59072;42.144;25.200;2023-09-19T00:55:29;100464.44;;;16.83;76.03
71149;BME280;59072;42.144;25.200;2023-09-19T00:57:56;100456.72;;;16.70;76.58
71149;BME280;59072;42.144;25.200;2023-09-19T01:00:22;100474.34;;;16.22;78.29
71149;BME280;59072;42.144;25.200;2023-09-19T01:02:48;100490.75;;;16.03;81.72
71149;BME280;59072;42.144;25.200;2023-09-19T01:05:14;100488.44;;;17.07;76.78
71149;BME280;59072;42.144;25.200;2023-09-19T01:07:40;100489.09;;;17.14;75.70
71149;BME280;59072;42.144;25.200;2023-09-19T01:10:08;100458.00;;;16.84;76.09
71149;BME280;59072;42.144;25.200;2023-09-19T01:23:23;100481.56;;;17.43;74.94
71149;BME280;59072;42.144;25.200;2023-09-19T01:28:39;100489.44;;;17.50;71.96
71149;BME280;59072;42.144;25.200;2023-09-19T01:31:09;100476.88;;;17.34;74.12
71149;BME280;59072;42.144;25.200;2023-09-19T01:36:25;100470.38;;;17.30;75.00
71149;BME280;59072;42.144;25.200;2023-09-19T01:38:51;100456.34;;;17.27;74.87
71149;BME280;59072;42.144;25.200;2023-09-19T01:41:25;100466.50;;;17.20;74.23
71149;BME280;59072;42.144;25.200;2023-09-19T01:43:52;100461.50;;;16.85;76.23
71149;BME280;59072;42.144;25.200;2023-09-19T01:46:33;100470.47;;;16.52;76.28
71149;BME280;59072;42.144;25.200;2023-09-19T01:49:41;100450.69;;;16.63;78.03
71149;BME280;59072;42.144;25.200;2023-09-19T01:52:12;100455.19;;;16.96;73.99
71149;BME280;59072;42.144;25.200;2023-09-19T01:55:01;100467.34;;;16.99;75.46
71149;BME280;59072;42.144;25.200;2023-09-19T02:00:32;100471.59;;;16.95;74.87
71149;BME280;59072;42.144;25.200;2023-09-19T02:02:59;100466.13;;;16.51;74.61
71149;BME280;59072;42.144;25.200;2023-09-19T02:05:25;100450.63;;;16.58;77.68
71149;BME280;59072;42.144;25.200;2023-09-19T02:07:52;100471.97;;;16.81;75.37
71149;BME280;59072;42.144;25.200;2023-09-19T02:10:18;100448.00;;;16.63;76.01
71149;BME280;59072;42.144;25.200;2023-09-19T02:12:44;100448.69;;;16.53;78.09
71149;BME280;59072;42.144;25.200;2023-09-19T02:15:10;100478.59;;;16.57;78.85
71149;BME280;59072;42.144;25.200;2023-09-19T02:17:35;100452.19;;;16.54;78.29
71149;BME280;59072;42.144;25.200;2023-09-19T02:20:01;100464.84;;;16.53;78.33
71149;BME280;59072;42.144;25.200;2023-09-19T02:22:28;100436.47;;;16.45;78.62
71149;BME280;59072;42.144;25.200;2023-09-19T02:24:54;100459.91;;;16.45;77.52
71149;BME280;59072;42.144;25.200;2023-09-19T02:27:23;100455.72;;;16.76;77.33
71149;BME280;59072;42.144;25.200;2023-09-19T02:29:49;100449.13;;;16.45;78.37
71149;BME280;59072;42.144;25.200;2023-09-19T02:32:14;100428.94;;;16.25;79.12
71149;BME280;59072;42.144;25.200;2023-09-19T02:34:40;100457.00;;;16.13;80.05
71149;BME280;59072;42.144;25.200;2023-09-19T02:37:07;100460.97;;;16.27;79.78
71149;BME280;59072;42.144;25.200;2023-09-19T02:39:33;100461.59;;;16.73;78.84
71149;BME280;59072;42.144;25.200;2023-09-19T02:41:59;100439.03;;;16.79;77.28
71149;BME280;59072;42.144;25.200;2023-09-19T02:44:24;100436.38;;;16.40;78.76
71149;BME280;59072;42.144;25.200;2023-09-19T02:46:50;100445.44;;;16.51;79.62
71149;BME280;59072;42.144;25.200;2023-09-19T02:49:16;100440.06;;;16.51;79.23
71149;BME280;59072;42.144;25.200;2023-09-19T02:51:43;100448.06;;;16.68;78.47
71149;BME280;59072;42.144;25.200;2023-09-19T02:54:09;100446.94;;;16.64;77.85
71149;BME280;59072;42.144;25.200;2023-09-19T02:56:35;100411.59;;;16.38;78.15
71149;BME280;59072;42.144;25.200;2023-09-19T02:59:01;100432.78;;;16.52;78.43
71149;BME280;59072;42.144;25.200;2023-09-19T03:01:26;100444.88;;;16.32;79.69
71149;BME280;59072;42.144;25.200;2023-09-19T03:03:53;100436.09;;;16.20;79.38
71149;BME280;59072;42.144;25.200;2023-09-19T03:06:19;100456.13;;;16.46;78.51
71149;BME280;59072;42.144;25.200;2023-09-19T03:08:45;100419.66;;;15.99;80.27
71149;BME280;59072;42.144;25.200;2023-09-19T03:11:12;100432.78;;;16.52;79.46
71149;BME280;59072;42.144;25.200;2023-09-19T03:13:39;100446.16;;;16.46;79.04
71149;BME280;59072;42.144;25.200;2023-09-19T03:16:07;100419.81;;;16.10;79.74
71149;BME280;59072;42.144;25.200;2023-09-19T03:18:35;100434.44;;;16.36;80.15
71149;BME280;59072;42.144;25.200;2023-09-19T03:21:00;100463.16;;;16.30;79.61
71149;BME280;59072;42.144;25.200;2023-09-19T03:23:26;100441.09;;;16.11;81.08
71149;BME280;59072;42.144;25.200;2023-09-19T03:25:53;100413.00;;;16.02;80.03
71149;BME280;59072;42.144;25.200;2023-09-19T03:28:19;100458.03;;;16.29;80.96
71149;BME280;59072;42.144;25.200;2023-09-19T03:30:46;100428.06;;;15.86;80.81
71149;BME280;59072;42.144;25.200;2023-09-19T03:33:12;100400.25;;;15.63;80.54
71149;BME280;59072;42.144;25.200;2023-09-19T03:35:38;100438.91;;;15.91;81.51
71149;BME280;59072;42.144;25.200;2023-09-19T03:38:05;100442.31;;;16.03;80.72
71149;BME280;59072;42.144;25.200;2023-09-19T03:40:30;100437.91;;;15.97;81.45
71149;BME280;59072;42.144;25.200;2023-09-19T03:42:55;100441.84;;;16.06;80.32
71149;BME280;59072;42.144;25.200;2023-09-19T03:45:21;100463.16;;;16.30;80.08
71149;BME280;59072;42.144;25.200;2023-09-19T03:47:47;100441.19;;;15.99;78.87
71149;BME280;59072;42.144;25.200;2023-09-19T03:50:13;100444.28;;;15.29;82.48
71149;BME280;59072;42.144;25.200;2023-09-19T03:52:43;100442.03;;;15.09;83.74
71149;BME280;59072;42.144;25.200;2023-09-19T03:55:09;100453.16;;;14.89;86.22
71149;BME280;59072;42.144;25.200;2023-09-19T03:57:35;100455.78;;;14.60;87.10
71149;BME280;59072;42.144;25.200;2023-09-19T04:00:02;100444.69;;;14.68;86.64
71149;BME280;59072;42.144;25.200;2023-09-19T04:02:27;100442.91;;;14.85;85.42
71149;BME280;59072;42.144;25.200;2023-09-19T04:04:58;100458.00;;;15.15;83.68
71149;BME280;59072;42.144;25.200;2023-09-19T04:07:23;100467.81;;;15.38;83.07
71149;BME280;59072;42.144;25.200;2023-09-19T04:09:53;100454.72;;;15.13;83.81
71149;BME280;59072;42.144;25.200;2023-09-19T04:12:19;100452.91;;;15.31;82.31
71149;BME280;59072;42.144;25.200;2023-09-19T04:14:44;100460.91;;;15.14;83.20
71149;BME280;59072;42.144;25.200;2023-09-19T04:17:10;100474.63;;;15.00;84.72
71149;BME280;59072;42.144;25.200;2023-09-19T04:19:36;100475.66;;;14.59;87.28
71149;BME280;59072;42.144;25.200;2023-09-19T04:22:02;100454.84;;;14.54;86.57
71149;BME280;59072;42.144;25.200;2023-09-19T04:24:28;100445.97;;;14.77;84.98
71149;BME280;59072;42.144;25.200;2023-09-19T04:26:53;100445.31;;;14.99;83.77
71149;BME280;59072;42.144;25.200;2023-09-19T04:29:18;100440.31;;;14.91;84.42
71149;BME280;59072;42.144;25.200;2023-09-19T04:31:47;100461.75;;;15.14;83.28
71149;BME280;59072;42.144;25.200;2023-09-19T04:34:13;100459.66;;;15.04;83.74
71149;BME280;59072;42.144;25.200;2023-09-19T04:36:41;100474.94;;;14.16;83.61
71149;BME280;59072;42.144;25.200;2023-09-19T04:39:07;100468.25;;;13.83;83.66
71149;BME280;59072;42.144;25.200;2023-09-19T04:41:33;100473.34;;;13.73;84.94
71149;BME280;59072;42.144;25.200;2023-09-19T04:43:59;100452.91;;;13.60;85.41
71149;BME280;59072;42.144;25.200;2023-09-19T04:46:27;100481.78;;;13.58;87.25
71149;BME280;59072;42.144;25.200;2023-09-19T04:48:52;100478.72;;;13.43;88.08
71149;BME280;59072;42.144;25.200;2023-09-19T04:51:17;100455.38;;;13.32;88.35
71149;BME280;59072;42.144;25.200;2023-09-19T04:53:44;100447.72;;;13.17;90.63
71149;BME280;59072;42.144;25.200;2023-09-19T04:56:09;100447.81;;;13.10;91.28
71149;BME280;59072;42.144;25.200;2023-09-19T04:58:34;100451.69;;;13.14;92.84
71149;BME280;59072;42.144;25.200;2023-09-19T05:01:00;100469.19;;;13.47;91.64
71149;BME280;59072;42.144;25.200;2023-09-19T05:03:29;100483.31;;;14.20;88.42
71149;BME280;59072;42.144;25.200;2023-09-19T05:05:55;100482.63;;;14.60;87.49
71149;BME280;59072;42.144;25.200;2023-09-19T05:08:20;100446.13;;;14.59;88.42
71149;BME280;59072;42.144;25.200;2023-09-19T05:10:47;100461.81;;;15.65;87.43
71149;BME280;59072;42.144;25.200;2023-09-19T05:13:16;100495.22;;;16.32;84.68
71149;BME280;59072;42.144;25.200;2023-09-19T05:15:42;100463.16;;;16.47;82.76
71149;BME280;59072;42.144;25.200;2023-09-19T05:18:07;100465.13;;;16.18;80.41
71149;BME280;59072;42.144;25.200;2023-09-19T05:20:34;100489.09;;;16.53;78.42
71149;BME280;59072;42.144;25.200;2023-09-19T05:23:02;100447.91;;;16.36;79.33
71149;BME280;59072;42.144;25.200;2023-09-19T05:25:31;100452.00;;;16.21;78.76
71149;BME280;59072;42.144;25.200;2023-09-19T05:27:58;100470.94;;;16.10;80.83
71149;BME280;59072;42.144;25.200;2023-09-19T05:30:27;100468.22;;;16.43;82.47
71149;BME280;59072;42.144;25.200;2023-09-19T05:32:54;100487.13;;;16.87;78.98
71149;BME280;59072;42.144;25.200;2023-09-19T05:35:20;100474.66;;;17.03;79.84
71149;BME280;59072;42.144;25.200;2023-09-19T05:37:50;100474.34;;;16.61;81.32
71149;BME280;59072;42.144;25.200;2023-09-19T05:40:19;100468.47;;;17.03;79.60
71149;BME280;59072;42.144;25.200;2023-09-19T05:42:45;100466.69;;;17.14;78.65
71149;BME280;59072;42.144;25.200;2023-09-19T05:45:12;100479.97;;;17.75;76.61
71149;BME280;59072;42.144;25.200;2023-09-19T05:47:38;100457.47;;;17.91;75.19
71149;BME280;59072;42.144;25.200;2023-09-19T05:50:05;100481.91;;;18.12;75.68
71149;BME280;59072;42.144;25.200;2023-09-19T05:52:33;100475.25;;;17.87;76.18
71149;BME280;59072;42.144;25.200;2023-09-19T05:54:58;100447.38;;;18.14;74.33
71149;BME280;59072;42.144;25.200;2023-09-19T05:57:23;100459.47;;;18.48;73.17
71149;BME280;59072;42.144;25.200;2023-09-19T05:59:50;100480.75;;;18.82;72.40
71149;BME280;59072;42.144;25.200;2023-09-19T06:02:15;100449.78;;;18.53;71.89
71149;BME280;59072;42.144;25.200;2023-09-19T06:04:41;100472.03;;;18.70;71.16
71149;BME280;59072;42.144;25.200;2023-09-19T06:07:06;100443.97;;;18.28;71.98
71149;BME280;59072;42.144;25.200;2023-09-19T06:09:32;100483.34;;;18.67;71.97
71149;BME280;59072;42.144;25.200;2023-09-19T06:11:58;100457.97;;;18.73;72.20
71149;BME280;59072;42.144;25.200;2023-09-19T06:14:25;100477.06;;;19.14;70.30
71149;BME280;59072;42.144;25.200;2023-09-19T06:16:50;100446.25;;;19.20;68.06
71149;BME280;59072;42.144;25.200;2023-09-19T06:19:19;100453.31;;;19.26;66.84
71149;BME280;59072;42.144;25.200;2023-09-19T06:21:48;100459.28;;;19.34;67.39
71149;BME280;59072;42.144;25.200;2023-09-19T06:24:14;100465.75;;;19.33;67.05
71149;BME280;59072;42.144;25.200;2023-09-19T06:26:40;100459.03;;;19.35;67.55
71149;BME280;59072;42.144;25.200;2023-09-19T06:29:05;100462.84;;;19.50;67.00
71149;BME280;59072;42.144;25.200;2023-09-19T06:31:33;100450.66;;;19.42;66.81
71149;BME280;59072;42.144;25.200;2023-09-19T06:33:58;100476.16;;;19.72;66.14
71149;BME280;59072;42.144;25.200;2023-09-19T06:36:26;100473.16;;;19.94;65.13
71149;BME280;59072;42.144;25.200;2023-09-19T06:38:54;100486.94;;;20.18;63.52
71149;BME280;59072;42.144;25.200;2023-09-19T06:41:19;100475.59;;;20.16;63.50
71149;BME280;59072;42.144;25.200;2023-09-19T06:43:50;100455.56;;;20.12;63.01
71149;BME280;59072;42.144;25.200;2023-09-19T06:46:18;100489.03;;;20.57;63.54
71149;BME280;59072;42.144;25.200;2023-09-19T06:48:44;100479.56;;;20.59;61.84
71149;BME280;59072;42.144;25.200;2023-09-19T06:51:10;100454.91;;;20.51;60.44
71149;BME280;59072;42.144;25.200;2023-09-19T06:53:35;100473.91;;;20.45;60.81
71149;BME280;59072;42.144;25.200;2023-09-19T06:56:02;100463.63;;;20.47;59.61
71149;BME280;59072;42.144;25.200;2023-09-19T06:58:27;100448.44;;;20.52;61.24
71149;BME280;59072;42.144;25.200;2023-09-19T07:00:55;100454.25;;;20.95;59.63
71149;BME280;59072;42.144;25.200;2023-09-19T07:03:21;100456.91;;;21.05;58.65
71149;BME280;59072;42.144;25.200;2023-09-19T07:05:50;100423.94;;;20.82;58.82
71149;BME280;59072;42.144;25.200;2023-09-19T07:08:16;100445.78;;;21.06;59.37
71149;BME280;59072;42.144;25.200;2023-09-19T07:10:42;100431.25;;;21.32;58.87
71149;BME280;59072;42.144;25.200;2023-09-19T07:13:14;100468.53;;;21.60;59.01
71149;BME280;59072;42.144;25.200;2023-09-19T07:15:43;100449.63;;;21.50;59.29
71149;BME280;59072;42.144;25.200;2023-09-19T07:18:16;100451.25;;;21.41;58.58
71149;BME280;59072;42.144;25.200;2023-09-19T07:20:45;100452.19;;;21.65;58.88
71149;BME280;59072;42.144;25.200;2023-09-19T07:23:23;100455.44;;;21.67;58.34
71149;BME280;59072;42.144;25.200;2023-09-19T07:25:49;100445.16;;;21.64;58.54
71149;BME280;59072;42.144;25.200;2023-09-19T07:28:16;100467.81;;;22.13;57.38
71149;BME280;59072;42.144;25.200;2023-09-19T07:30:41;100456.03;;;21.94;58.19
71149;BME280;59072;42.144;25.200;2023-09-19T07:33:07;100460.94;;;21.92;58.33
71149;BME280;59072;42.144;25.200;2023-09-19T07:35:33;100461.66;;;22.02;59.20
71149;BME280;59072;42.144;25.200;2023-09-19T07:38:01;100441.75;;;22.12;58.00
71149;BME280;59072;42.144;25.200;2023-09-19T07:40:27;100436.16;;;21.98;57.54
71149;BME280;59072;42.144;25.200;2023-09-19T07:42:56;100428.50;;;22.05;59.31
71149;BME280;59072;42.144;25.200;2023-09-19T07:45:22;100435.16;;;22.18;59.54
71149;BME280;59072;42.144;25.200;2023-09-19T07:47:48;100450.88;;;22.51;57.39
71149;BME280;59072;42.144;25.200;2023-09-19T07:50:15;100440.03;;;22.94;55.50
71149;BME280;59072;42.144;25.200;2023-09-19T07:52:41;100448.31;;;22.83;56.63
71149;BME280;59072;42.144;25.200;2023-09-19T07:55:08;100435.59;;;23.03;54.85
71149;BME280;59072;42.144;25.200;2023-09-19T07:57:35;100407.41;;;23.13;54.11
71149;BME280;59072;42.144;25.200;2023-09-19T08:00:01;100423.66;;;23.37;54.06
71149;BME280;59072;42.144;25.200;2023-09-19T08:02:29;100412.19;;;23.40;54.36
71149;BME280;59072;42.144;25.200;2023-09-19T08:04:55;100404.00;;;23.59;52.83
71149;BME280;59072;42.144;25.200;2023-09-19T08:07:23;100396.28;;;23.47;54.52
71149;BME280;59072;42.144;25.200;2023-09-19T08:09:49;100410.97;;;23.98;50.59
71149;BME280;59072;42.144;25.200;2023-09-19T08:12:14;100420.38;;;23.73;52.97
71149;BME280;59072;42.144;25.200;2023-09-19T08:14:40;100402.41;;;23.72;51.50
71149;BME280;59072;42.144;25.200;2023-09-19T08:17:06;100433.41;;;24.22;50.87
71149;BME280;59072;42.144;25.200;2023-09-19T08:19:33;100407.34;;;23.89;51.97
71149;BME280;59072;42.144;25.200;2023-09-19T08:21:59;100406.97;;;24.37;49.12
71149;BME280;59072;42.144;25.200;2023-09-19T08:24:25;100418.47;;;24.61;48.79
71149;BME280;59072;42.144;25.200;2023-09-19T08:26:57;100388.38;;;23.97;48.66
71149;BME280;59072;42.144;25.200;2023-09-19T08:29:24;100416.34;;;24.44;48.14
71149;BME280;59072;42.144;25.200;2023-09-19T08:31:59;100427.53;;;24.84;46.82
71149;BME280;59072;42.144;25.200;2023-09-19T08:34:27;100411.91;;;24.76;45.36
71149;BME280;59072;42.144;25.200;2023-09-19T08:36:54;100394.03;;;25.06;45.62
71149;BME280;59072;42.144;25.200;2023-09-19T08:39:23;100399.00;;;25.63;42.68
71149;BME280;59072;42.144;25.200;2023-09-19T08:41:49;100381.25;;;25.52;44.06
71149;BME280;59072;42.144;25.200;2023-09-19T08:44:15;100394.09;;;25.29;42.65
71149;BME280;59072;42.144;25.200;2023-09-19T08:46:42;100376.16;;;25.59;41.69
71149;BME280;59072;42.144;25.200;2023-09-19T08:49:18;100379.03;;;25.54;43.00
71149;BME280;59072;42.144;25.200;2023-09-19T08:51:54;100368.38;;;25.75;42.06
71149;BME280;59072;42.144;25.200;2023-09-19T08:54:25;100380.16;;;26.16;41.28
71149;BME280;59072;42.144;25.200;2023-09-19T08:56:54;100390.66;;;26.31;39.84
71149;BME280;59072;42.144;25.200;2023-09-19T08:59:25;100375.88;;;26.32;40.51
71149;BME280;59072;42.144;25.200;2023-09-19T09:01:53;100376.66;;;26.24;41.15
71149;BME280;59072;42.144;25.200;2023-09-19T09:04:21;100365.66;;;26.06;40.22
71149;BME280;59072;42.144;25.200;2023-09-19T09:06:48;100362.44;;;26.62;39.21
71149;BME280;59072;42.144;25.200;2023-09-19T09:09:18;100365.34;;;26.74;38.55
71149;BME280;59072;42.144;25.200;2023-09-19T09:11:43;100353.16;;;26.98;37.93
71149;BME280;59072;42.144;25.200;2023-09-19T09:14:20;100351.69;;;26.83;37.39
71149;BME280;59072;42.144;25.200;2023-09-19T09:16:46;100332.63;;;26.52;39.38
71149;BME280;59072;42.144;25.200;2023-09-19T09:19:14;100312.41;;;25.95;39.72
71149;BME280;59072;42.144;25.200;2023-09-19T09:21:42;100332.81;;;26.46;38.86
71149;BME280;59072;42.144;25.200;2023-09-19T09:24:29;100350.78;;;26.30;39.10
71149;BME280;59072;42.144;25.200;2023-09-19T09:26:56;100353.16;;;26.23;39.07
71149;BME280;59072;42.144;25.200;2023-09-19T09:32:25;100344.94;;;26.98;38.50
71149;BME280;59072;42.144;25.200;2023-09-19T09:34:57;100331.97;;;26.37;38.51
71149;BME280;59072;42.144;25.200;2023-09-19T09:37:27;100321.13;;;26.81;38.29
71149;BME280;59072;42.144;25.200;2023-09-19T09:40:02;100326.06;;;27.05;37.61
71149;BME280;59072;42.144;25.200;2023-09-19T09:42:39;100308.84;;;27.04;37.92
71149;BME280;59072;42.144;25.200;2023-09-19T09:45:19;100327.97;;;27.48;35.81
71149;BME280;59072;42.144;25.200;2023-09-19T09:48:14;100312.47;;;27.52;36.36
71149;BME280;59072;42.144;25.200;2023-09-19T09:50:47;100314.00;;;26.89;36.64
71149;BME280;59072;42.144;25.200;2023-09-19T09:53:26;100280.22;;;26.76;36.42
71149;BME280;59072;42.144;25.200;2023-09-19T09:56:08;100308.47;;;27.58;35.57
71149;BME280;59072;42.144;25.200;2023-09-19T09:58:36;100301.47;;;27.70;36.31
71149;BME280;59072;42.144;25.200;2023-09-19T10:01:05;100297.25;;;27.81;35.22
71149;BME280;59072;42.144;25.200;2023-09-19T10:03:41;100297.91;;;27.78;35.01
71149;BME280;59072;42.144;25.200;2023-09-19T10:06:14;100303.38;;;27.87;35.17
71149;BME280;59072;42.144;25.200;2023-09-19T10:09:07;100303.75;;;28.06;34.13
71149;BME280;59072;42.144;25.200;2023-09-19T10:11:35;100301.66;;;28.12;33.99
71149;BME280;59072;42.144;25.200;2023-09-19T10:14:05;100300.56;;;28.25;33.73
71149;BME280;59072;42.144;25.200;2023-09-19T10:16:32;100318.19;;;28.24;32.99
71149;BME280;59072;42.144;25.200;2023-09-19T10:19:02;100317.88;;;28.47;33.12
71149;BME280;59072;42.144;25.200;2023-09-19T10:21:32;100304.44;;;28.54;32.26
71149;BME280;59072;42.144;25.200;2023-09-19T10:23:58;100290.44;;;28.89;31.44
71149;BME280;59072;42.144;25.200;2023-09-19T10:26:27;100291.59;;;29.21;29.81
71149;BME280;59072;42.144;25.200;2023-09-19T10:28:57;100293.34;;;29.25;29.99
71149;BME280;59072;42.144;25.200;2023-09-19T10:31:26;100289.13;;;28.74;30.68
71149;BME280;59072;42.144;25.200;2023-09-19T10:33:55;100261.94;;;28.39;31.46
71149;BME280;59072;42.144;25.200;2023-09-19T10:36:24;100279.16;;;27.97;31.65
71149;BME280;59072;42.144;25.200;2023-09-19T10:38:52;100271.22;;;28.25;31.63
71149;BME280;59072;42.144;25.200;2023-09-19T10:41:22;100274.22;;;28.12;31.54
71149;BME280;59072;42.144;25.200;2023-09-19T10:43:48;100261.53;;;28.70;30.58
71149;BME280;59072;42.144;25.200;2023-09-19T10:46:14;100263.47;;;28.49;29.78
71149;BME280;59072;42.144;25.200;2023-09-19T10:48:41;100264.31;;;29.49;29.58
71149;BME280;59072;42.144;25.200;2023-09-19T10:51:11;100250.72;;;29.65;28.54
71149;BME280;59072;42.144;25.200;2023-09-19T10:56:26;100260.22;;;29.92;28.40
71149;BME280;59072;42.144;25.200;2023-09-19T10:59:11;100241.63;;;29.52;30.73
71149;BME280;59072;42.144;25.200;2023-09-19T11:01:46;100247.84;;;29.49;29.21
71149;BME280;59072;42.144;25.200;2023-09-19T11:04:29;100239.78;;;30.18;28.21
71149;BME280;59072;42.144;25.200;2023-09-19T11:07:06;100243.25;;;30.15;27.88
71149;BME280;59072;42.144;25.200;2023-09-19T11:09:55;100223.56;;;29.51;28.07
71149;BME280;59072;42.144;25.200;2023-09-19T11:15:01;100221.25;;;28.41;28.48
71149;BME280;59072;42.144;25.200;2023-09-19T11:30:39;100196.91;;;27.20;29.83
71149;BME280;59072;42.144;25.200;2023-09-19T11:33:27;100206.31;;;27.02;29.80
71149;BME280;59072;42.144;25.200;2023-09-19T11:43:46;100161.47;;;27.92;29.68
71149;BME280;59072;42.144;25.200;2023-09-19T11:46:12;100169.75;;;28.25;28.56
71149;BME280;59072;42.144;25.200;2023-09-19T11:48:42;100175.84;;;28.52;27.21
71149;BME280;59072;42.144;25.200;2023-09-19T11:51:20;100168.75;;;28.51;27.91
71149;BME280;59072;42.144;25.200;2023-09-19T11:53:52;100172.31;;;28.97;27.61
71149;BME280;59072;42.144;25.200;2023-09-19T11:56:22;100165.72;;;29.11;27.85
71149;BME280;59072;42.144;25.200;2023-09-19T11:58:53;100167.88;;;29.91;26.61
71149;BME280;59072;42.144;25.200;2023-09-19T12:01:32;100171.09;;;29.81;26.21
71149;BME280;59072;42.144;25.200;2023-09-19T12:04:01;100146.22;;;30.42;26.62
71149;BME280;59072;42.144;25.200;2023-09-19T12:06:30;100166.19;;;30.83;24.26
71149;BME280;59072;42.144;25.200;2023-09-19T12:08:57;100153.34;;;29.66;25.25
71149;BME280;59072;42.144;25.200;2023-09-19T12:11:28;100151.88;;;29.32;26.10
71149;BME280;59072;42.144;25.200;2023-09-19T12:13:55;100156.84;;;29.38;25.86
71149;BME280;59072;42.144;25.200;2023-09-19T12:16:24;100145.78;;;29.01;25.33
71149;BME280;59072;42.144;25.200;2023-09-19T12:18:50;100146.97;;;29.37;27.05
71149;BME280;59072;42.144;25.200;2023-09-19T12:24:11;100143.31;;;30.11;26.02
71149;BME280;59072;42.144;25.200;2023-09-19T12:26:45;100114.19;;;30.66;25.08
71149;BME280;59072;42.144;25.200;2023-09-19T12:29:25;100129.16;;;31.29;24.41
71149;BME280;59072;42.144;25.200;2023-09-19T12:31:55;100137.31;;;31.41;24.33
71149;BME280;59072;42.144;25.200;2023-09-19T12:34:28;100139.06;;;31.65;23.30
71149;BME280;59072;42.144;25.200;2023-09-19T12:37:04;100134.22;;;31.97;23.70
71149;BME280;59072;42.144;25.200;2023-09-19T12:39:31;100116.25;;;32.23;23.52
71149;BME280;59072;42.144;25.200;2023-09-19T12:42:01;100114.66;;;31.32;22.96
71149;BME280;59072;42.144;25.200;2023-09-19T12:44:29;100125.13;;;31.58;22.90
71149;BME280;59072;42.144;25.200;2023-09-19T12:46:55;100129.41;;;31.23;23.42
71149;BME280;59072;42.144;25.200;2023-09-19T12:49:24;100093.28;;;30.93;23.44
71149;BME280;59072;42.144;25.200;2023-09-19T12:51:55;100102.06;;;30.99;23.40
71149;BME280;59072;42.144;25.200;2023-09-19T12:54:20;100111.19;;;30.87;24.18
71149;BME280;59072;42.144;25.200;2023-09-19T12:56:47;100102.47;;;30.85;25.33
71149;BME280;59072;42.144;25.200;2023-09-19T12:59:15;100088.81;;;30.73;23.16
71149;BME280;59072;42.144;25.200;2023-09-19T13:01:44;100093.66;;;30.48;24.03
71149;BME280;59072;42.144;25.200;2023-09-19T13:04:20;100107.34;;;30.60;23.80
71149;BME280;59072;42.144;25.200;2023-09-19T13:06:46;100092.78;;;30.43;23.78
71149;BME280;59072;42.144;25.200;2023-09-19T13:09:14;100072.50;;;30.08;25.16
71149;BME280;59072;42.144;25.200;2023-09-19T13:11:40;100069.69;;;30.04;24.25
71149;BME280;59072;42.144;25.200;2023-09-19T13:14:26;100100.44;;;30.66;24.23
71149;BME280;59072;42.144;25.200;2023-09-19T13:17:04;100092.47;;;30.93;23.19
71149;BME280;59072;42.144;25.200;2023-09-19T13:19:39;100090.56;;;31.44;24.15
71149;BME280;59072;42.144;25.200;2023-09-19T13:25:04;100083.59;;;31.86;23.83
71149;BME280;59072;42.144;25.200;2023-09-19T13:27:32;100089.38;;;32.39;21.80
71149;BME280;59072;42.144;25.200;2023-09-19T13:29:58;100078.53;;;32.50;22.67
71149;BME280;59072;42.144;25.200;2023-09-19T13:32:24;100075.84;;;32.34;22.15
71149;BME280;59072;42.144;25.200;2023-09-19T13:34:49;100083.84;;;31.81;22.39
71149;BME280;59072;42.144;25.200;2023-09-19T13:37:16;100074.28;;;31.94;22.80
71149;BME280;59072;42.144;25.200;2023-09-19T13:39:43;100080.03;;;32.05;22.69
71149;BME280;59072;42.144;25.200;2023-09-19T13:42:13;100075.91;;;32.15;23.52